sensor_id;sensor_type;location;lat;lon;timestamp;pressure;altitude;pressure_sealevel;temperature;humidity
74893;BME280;63446;56.272;43.922;2022-11-24T00:00:13;100412.59;;;-2.89;71.82
74893;BME280;63446;56.272;43.922;2022-11-24T00:02:39;100412.34;;;-2.95;71.76
74893;BME280;63446;56.272;43.922;2022-11-24T00:05:05;100419.91;;;-2.93;71.70
74893;BME280;63446;56.272;43.922;2022-11-24T00:07:32;100431.03;;;-2.92;71.57
74893;BME280;63446;56.272;43.922;2022-11-24T00:09:58;100421.69;;;-2.93;71.38
74893;BME280;63446;56.272;43.922;2022-11-24T00:12:23;100427.84;;;-2.95;71.30
74893;BME280;63446;56.272;43.922;2022-11-24T00:14:49;100423.22;;;-2.99;71.36
74893;BME280;63446;56.272;43.922;2022-11-24T00:17:15;100431.59;;;-2.97;71.47
74893;BME280;63446;56.272;43.922;2022-11-24T00:19:41;100434.53;;;-3.00;71.40
74893;BME280;63446;56.272;43.922;2022-11-24T00:22:07;100442.91;;;-2.98;71.35
74893;BME280;63446;56.272;43.922;2022-11-24T00:24:32;100439.53;;;-2.99;71.32
74893;BME280;63446;56.272;43.922;2022-11-24T00:26:58;100439.88;;;-3.02;71.57
74893;BME280;63446;56.272;43.922;2022-11-24T00:29:24;100440.53;;;-3.00;71.38
74893;BME280;63446;56.272;43.922;2022-11-24T00:31:49;100441.31;;;-2.99;71.51
74893;BME280;63446;56.272;43.922;2022-11-24T00:34:15;100430.97;;;-2.99;71.47
74893;BME280;63446;56.272;43.922;2022-11-24T00:36:41;100437.09;;;-3.00;71.26
74893;BME280;63446;56.272;43.922;2022-11-24T00:39:12;100437.28;;;-3.02;71.07
74893;BME280;63446;56.272;43.922;2022-11-24T00:41:38;100444.41;;;-3.04;71.21
74893;BME280;63446;56.272;43.922;2022-11-24T00:44:04;100441.22;;;-3.06;71.17
74893;BME280;63446;56.272;43.922;2022-11-24T00:46:30;100447.97;;;-3.05;71.34
74893;BME280;63446;56.272;43.922;2022-11-24T00:48:57;100450.75;;;-3.06;71.33
74893;BME280;63446;56.272;43.922;2022-11-24T00:51:26;100461.72;;;-3.04;71.14
74893;BME280;63446;56.272;43.922;2022-11-24T00:53:55;100459.94;;;-3.04;71.24
74893;BME280;63446;56.272;43.922;2022-11-24T00:56:21;100472.69;;;-3.02;71.49
74893;BME280;63446;56.272;43.922;2022-11-24T00:58:47;100475.88;;;-3.00;71.33
74893;BME280;63446;56.272;43.922;2022-11-24T01:01:15;100481.88;;;-3.00;71.53
74893;BME280;63446;56.272;43.922;2022-11-24T01:03:42;100483.31;;;-2.97;71.62
74893;BME280;63446;56.272;43.922;2022-11-24T01:06:19;100483.75;;;-2.93;71.50
74893;BME280;63446;56.272;43.922;2022-11-24T01:08:45;100488.75;;;-2.92;71.36
74893;BME280;63446;56.272;43.922;2022-11-24T01:11:18;100496.34;;;-2.90;71.32
74893;BME280;63446;56.272;43.922;2022-11-24T01:13:47;100499.72;;;-2.90;71.34
74893;BME280;63446;56.272;43.922;2022-11-24T01:16:16;100495.53;;;-2.91;71.42
74893;BME280;63446;56.272;43.922;2022-11-24T01:18:44;100503.09;;;-2.89;71.36
74893;BME280;63446;56.272;43.922;2022-11-24T01:21:10;100500.34;;;-2.88;71.28
74893;BME280;63446;56.272;43.922;2022-11-24T01:23:36;100496.34;;;-2.90;71.44
74893;BME280;63446;56.272;43.922;2022-11-24T01:26:08;100507.47;;;-2.90;71.31
74893;BME280;63446;56.272;43.922;2022-11-24T01:28:34;100499.72;;;-2.90;70.98
74893;BME280;63446;56.272;43.922;2022-11-24T01:31:02;100499.25;;;-2.93;71.18
74893;BME280;63446;56.272;43.922;2022-11-24T01:33:29;100496.69;;;-2.93;71.10
74893;BME280;63446;56.272;43.922;2022-11-24T01:35:57;100509.81;;;-2.95;71.23
74893;BME280;63446;56.272;43.922;2022-11-24T01:38:24;100502.84;;;-2.95;71.18
74893;BME280;63446;56.272;43.922;2022-11-24T01:40:59;100518.34;;;-2.95;71.23
74893;BME280;63446;56.272;43.922;2022-11-24T01:43:25;100514.78;;;-2.93;71.16
74893;BME280;63446;56.272;43.922;2022-11-24T01:45:52;100508.81;;;-2.94;71.06
74893;BME280;63446;56.272;43.922;2022-11-24T01:48:25;100515.13;;;-2.97;70.95
74893;BME280;63446;56.272;43.922;2022-11-24T01:51:08;100512.53;;;-2.97;71.01
74893;BME280;63446;56.272;43.922;2022-11-24T01:53:35;100513.34;;;-2.96;70.91
74893;BME280;63446;56.272;43.922;2022-11-24T01:56:04;100517.91;;;-2.98;70.95
74893;BME280;63446;56.272;43.922;2022-11-24T01:58:33;100515.50;;;-3.00;70.96
74893;BME280;63446;56.272;43.922;2022-11-24T02:01:00;100517.09;;;-2.99;71.15
74893;BME280;63446;56.272;43.922;2022-11-24T02:03:32;100523.88;;;-2.98;71.25
74893;BME280;63446;56.272;43.922;2022-11-24T02:06:08;100520.31;;;-2.97;71.13
74893;BME280;63446;56.272;43.922;2022-11-24T02:08:56;100522.88;;;-2.97;71.18
74893;BME280;63446;56.272;43.922;2022-11-24T02:11:26;100523.53;;;-2.95;71.28
74893;BME280;63446;56.272;43.922;2022-11-24T02:13:53;100526.13;;;-2.95;71.07
74893;BME280;63446;56.272;43.922;2022-11-24T02:16:20;100524.13;;;-2.92;70.92
74893;BME280;63446;56.272;43.922;2022-11-24T02:18:46;100525.94;;;-2.93;70.97
74893;BME280;63446;56.272;43.922;2022-11-24T02:21:13;100524.13;;;-2.92;71.09
74893;BME280;63446;56.272;43.922;2022-11-24T02:23:59;100523.34;;;-2.93;71.03
74893;BME280;63446;56.272;43.922;2022-11-24T02:26:44;100526.91;;;-2.94;71.22
74893;BME280;63446;56.272;43.922;2022-11-24T02:29:12;100528.50;;;-2.93;71.00
74893;BME280;63446;56.272;43.922;2022-11-24T02:31:42;100531.28;;;-2.95;70.98
74893;BME280;63446;56.272;43.922;2022-11-24T02:34:10;100535.66;;;-2.95;70.96
74893;BME280;63446;56.272;43.922;2022-11-24T02:36:35;100539.19;;;-2.96;71.18
74893;BME280;63446;56.272;43.922;2022-11-24T02:39:01;100536.63;;;-2.96;71.19
74893;BME280;63446;56.272;43.922;2022-11-24T02:41:27;100542.63;;;-2.96;71.30
74893;BME280;63446;56.272;43.922;2022-11-24T02:43:56;100547.59;;;-2.94;71.25
74893;BME280;63446;56.272;43.922;2022-11-24T02:50:41;100556.69;;;-2.98;71.06
74893;BME280;63446;56.272;43.922;2022-11-24T02:57:32;100564.00;;;-3.02;71.02
74893;BME280;63446;56.272;43.922;2022-11-24T03:04:22;100565.50;;;-3.07;70.92
74893;BME280;63446;56.272;43.922;2022-11-24T03:11:13;100569.22;;;-3.10;71.12
74893;BME280;63446;56.272;43.922;2022-11-24T03:18:03;100577.16;;;-3.11;71.10
74893;BME280;63446;56.272;43.922;2022-11-24T03:24:54;100591.84;;;-3.12;71.17
74893;BME280;63446;56.272;43.922;2022-11-24T03:31:44;100589.28;;;-3.12;70.93
74893;BME280;63446;56.272;43.922;2022-11-24T03:38:29;100595.75;;;-3.16;71.08
74893;BME280;63446;56.272;43.922;2022-11-24T03:45:07;100602.38;;;-3.13;71.08
74893;BME280;63446;56.272;43.922;2022-11-24T03:56:23;100604.16;;;-3.14;71.19
74893;BME280;63446;56.272;43.922;2022-11-24T04:03:13;100607.75;;;-3.23;71.07
74893;BME280;63446;56.272;43.922;2022-11-24T04:05:38;100605.19;;;-3.23;70.95
74893;BME280;63446;56.272;43.922;2022-11-24T04:08:04;100608.94;;;-3.26;71.08
74893;BME280;63446;56.272;43.922;2022-11-24T04:10:32;100606.34;;;-3.26;71.30
74893;BME280;63446;56.272;43.922;2022-11-24T04:12:58;100607.34;;;-3.27;71.22
74893;BME280;63446;56.272;43.922;2022-11-24T04:15:23;100605.38;;;-3.25;71.14
74893;BME280;63446;56.272;43.922;2022-11-24T04:17:49;100609.72;;;-3.25;71.19
74893;BME280;63446;56.272;43.922;2022-11-24T04:20:16;100613.75;;;-3.23;71.34
74893;BME280;63446;56.272;43.922;2022-11-24T04:22:42;100614.38;;;-3.21;71.44
74893;BME280;63446;56.272;43.922;2022-11-24T04:25:08;100617.78;;;-3.20;71.47
74893;BME280;63446;56.272;43.922;2022-11-24T04:27:36;100631.50;;;-3.20;71.17
74893;BME280;63446;56.272;43.922;2022-11-24T04:30:06;100622.94;;;-3.20;71.17
74893;BME280;63446;56.272;43.922;2022-11-24T04:32:32;100628.91;;;-3.20;71.19
74893;BME280;63446;56.272;43.922;2022-11-24T04:34:57;100633.94;;;-3.18;71.41
74893;BME280;63446;56.272;43.922;2022-11-24T04:37:23;100628.56;;;-3.16;71.41
74893;BME280;63446;56.272;43.922;2022-11-24T04:39:49;100640.50;;;-3.15;71.32
74893;BME280;63446;56.272;43.922;2022-11-24T04:42:15;100647.31;;;-3.14;71.38
74893;BME280;63446;56.272;43.922;2022-11-24T04:44:41;100648.44;;;-3.17;71.40
74893;BME280;63446;56.272;43.922;2022-11-24T04:47:14;100652.31;;;-3.13;71.25
74893;BME280;63446;56.272;43.922;2022-11-24T04:49:41;100650.06;;;-3.16;71.17
74893;BME280;63446;56.272;43.922;2022-11-24T04:52:07;100653.28;;;-3.14;71.31
74893;BME280;63446;56.272;43.922;2022-11-24T04:54:32;100657.47;;;-3.13;71.10
74893;BME280;63446;56.272;43.922;2022-11-24T04:56:58;100660.06;;;-3.13;71.31
74893;BME280;63446;56.272;43.922;2022-11-24T04:59:24;100660.06;;;-3.13;71.33
74893;BME280;63446;56.272;43.922;2022-11-24T05:01:50;100659.25;;;-3.13;71.33
74893;BME280;63446;56.272;43.922;2022-11-24T05:04:16;100659.88;;;-3.11;71.40
74893;BME280;63446;56.272;43.922;2022-11-24T05:06:43;100673.63;;;-3.11;71.39
74893;BME280;63446;56.272;43.922;2022-11-24T05:09:13;100674.44;;;-3.10;71.35
74893;BME280;63446;56.272;43.922;2022-11-24T05:11:40;100675.38;;;-3.11;71.39
74893;BME280;63446;56.272;43.922;2022-11-24T05:14:06;100677.00;;;-3.10;71.27
74893;BME280;63446;56.272;43.922;2022-11-24T05:16:32;100680.41;;;-3.10;71.29
74893;BME280;63446;56.272;43.922;2022-11-24T05:18:58;100682.00;;;-3.09;71.33
74893;BME280;63446;56.272;43.922;2022-11-24T05:21:24;100682.00;;;-3.09;71.31
74893;BME280;63446;56.272;43.922;2022-11-24T05:23:49;100688.63;;;-3.06;71.48
74893;BME280;63446;56.272;43.922;2022-11-24T05:26:16;100691.22;;;-3.06;71.31
74893;BME280;63446;56.272;43.922;2022-11-24T05:28:41;100697.19;;;-3.06;71.23
74893;BME280;63446;56.272;43.922;2022-11-24T05:31:08;100698.78;;;-3.05;71.25
74893;BME280;63446;56.272;43.922;2022-11-24T05:33:34;100696.19;;;-3.05;71.33
74893;BME280;63446;56.272;43.922;2022-11-24T05:36:01;100699.44;;;-3.03;71.36
74893;BME280;63446;56.272;43.922;2022-11-24T05:38:27;100705.22;;;-3.01;71.43
74893;BME280;63446;56.272;43.922;2022-11-24T05:41:03;100699.09;;;-3.00;71.08
74893;BME280;63446;56.272;43.922;2022-11-24T05:43:29;100710.84;;;-2.97;71.31
74893;BME280;63446;56.272;43.922;2022-11-24T05:45:58;100717.81;;;-2.98;71.26
74893;BME280;63446;56.272;43.922;2022-11-24T05:48:24;100719.41;;;-2.97;70.97
74893;BME280;63446;56.272;43.922;2022-11-24T05:50:54;100721.03;;;-2.96;71.31
74893;BME280;63446;56.272;43.922;2022-11-24T05:53:20;100717.81;;;-2.98;71.24
74893;BME280;63446;56.272;43.922;2022-11-24T05:55:46;100725.38;;;-2.96;71.21
74893;BME280;63446;56.272;43.922;2022-11-24T05:58:12;100739.78;;;-2.93;71.19
74893;BME280;63446;56.272;43.922;2022-11-24T06:00:38;100737.03;;;-2.92;71.21
74893;BME280;63446;56.272;43.922;2022-11-24T06:03:04;100729.09;;;-2.90;71.38
74893;BME280;63446;56.272;43.922;2022-11-24T06:05:30;100734.88;;;-2.88;71.11
74893;BME280;63446;56.272;43.922;2022-11-24T06:07:58;100747.31;;;-2.84;71.25
74893;BME280;63446;56.272;43.922;2022-11-24T06:10:25;100746.34;;;-2.83;71.28
74893;BME280;63446;56.272;43.922;2022-11-24T06:12:51;100751.00;;;-2.78;71.20
74893;BME280;63446;56.272;43.922;2022-11-24T06:15:16;100761.00;;;-2.75;71.28
74893;BME280;63446;56.272;43.922;2022-11-24T06:17:43;100753.88;;;-2.73;71.16
74893;BME280;63446;56.272;43.922;2022-11-24T06:20:10;100768.09;;;-2.69;71.13
74893;BME280;63446;56.272;43.922;2022-11-24T06:22:36;100760.16;;;-2.67;71.14
74893;BME280;63446;56.272;43.922;2022-11-24T06:25:02;100766.91;;;-2.66;71.19
74893;BME280;63446;56.272;43.922;2022-11-24T06:27:29;100767.03;;;-2.60;71.24
74893;BME280;63446;56.272;43.922;2022-11-24T06:29:56;100770.91;;;-2.56;71.24
74893;BME280;63446;56.272;43.922;2022-11-24T06:32:22;100770.56;;;-2.53;70.85
74893;BME280;63446;56.272;43.922;2022-11-24T06:34:48;100771.97;;;-2.50;70.78
74893;BME280;63446;56.272;43.922;2022-11-24T06:37:14;100771.63;;;-2.47;70.75
74893;BME280;63446;56.272;43.922;2022-11-24T06:39:40;100778.06;;;-2.43;70.84
74893;BME280;63446;56.272;43.922;2022-11-24T06:42:05;100784.50;;;-2.39;70.87
74893;BME280;63446;56.272;43.922;2022-11-24T06:44:31;100784.38;;;-2.37;70.88
74893;BME280;63446;56.272;43.922;2022-11-24T06:46:57;100774.97;;;-2.38;70.64
74893;BME280;63446;56.272;43.922;2022-11-24T06:49:24;100784.19;;;-2.36;70.46
74893;BME280;63446;56.272;43.922;2022-11-24T06:51:49;100785.78;;;-2.35;70.46
74893;BME280;63446;56.272;43.922;2022-11-24T06:54:16;100790.00;;;-2.34;70.51
74893;BME280;63446;56.272;43.922;2022-11-24T06:56:45;100799.19;;;-2.31;70.48
74893;BME280;63446;56.272;43.922;2022-11-24T06:59:17;100794.00;;;-2.31;70.63
74893;BME280;63446;56.272;43.922;2022-11-24T07:01:43;100795.44;;;-2.29;70.62
74893;BME280;63446;56.272;43.922;2022-11-24T07:04:09;100792.53;;;-2.26;70.41
74893;BME280;63446;56.272;43.922;2022-11-24T07:06:35;100797.97;;;-2.21;70.56
74893;BME280;63446;56.272;43.922;2022-11-24T07:09:01;100801.22;;;-2.18;70.31
74893;BME280;63446;56.272;43.922;2022-11-24T07:11:27;100803.63;;;-2.17;70.40
74893;BME280;63446;56.272;43.922;2022-11-24T07:13:53;100806.84;;;-2.15;70.41
74893;BME280;63446;56.272;43.922;2022-11-24T07:16:21;100804.88;;;-2.13;70.26
74893;BME280;63446;56.272;43.922;2022-11-24T07:18:49;100799.69;;;-2.13;70.17
74893;BME280;63446;56.272;43.922;2022-11-24T07:21:16;100809.06;;;-2.12;70.23
74893;BME280;63446;56.272;43.922;2022-11-24T07:23:43;100815.06;;;-2.11;70.15
74893;BME280;63446;56.272;43.922;2022-11-24T07:26:09;100810.69;;;-2.11;70.07
74893;BME280;63446;56.272;43.922;2022-11-24T07:28:36;100814.88;;;-2.10;69.95
74893;BME280;63446;56.272;43.922;2022-11-24T07:31:10;100821.06;;;-2.11;69.96
74893;BME280;63446;56.272;43.922;2022-11-24T07:33:37;100828.81;;;-2.11;69.77
74893;BME280;63446;56.272;43.922;2022-11-24T07:36:04;100824.59;;;-2.12;70.00
74893;BME280;63446;56.272;43.922;2022-11-24T07:38:31;100829.78;;;-2.12;69.86
74893;BME280;63446;56.272;43.922;2022-11-24T07:41:01;100835.59;;;-2.10;69.99
74893;BME280;63446;56.272;43.922;2022-11-24T07:43:30;100836.41;;;-2.09;70.03
74893;BME280;63446;56.272;43.922;2022-11-24T07:45:57;100843.03;;;-2.07;69.91
74893;BME280;63446;56.272;43.922;2022-11-24T07:48:24;100844.44;;;-2.04;69.92
74893;BME280;63446;56.272;43.922;2022-11-24T07:50:49;100842.84;;;-2.05;69.80
74893;BME280;63446;56.272;43.922;2022-11-24T07:53:15;100850.47;;;-2.04;69.89
74893;BME280;63446;56.272;43.922;2022-11-24T07:55:42;100835.09;;;-2.05;69.85
74893;BME280;63446;56.272;43.922;2022-11-24T07:58:08;100842.50;;;-2.02;69.75
74893;BME280;63446;56.272;43.922;2022-11-24T08:00:33;100842.50;;;-2.02;69.82
74893;BME280;63446;56.272;43.922;2022-11-24T08:02:59;100837.34;;;-2.02;69.72
74893;BME280;63446;56.272;43.922;2022-11-24T08:05:25;100840.53;;;-2.00;69.92
74893;BME280;63446;56.272;43.922;2022-11-24T08:07:52;100837.78;;;-1.99;69.98
74893;BME280;63446;56.272;43.922;2022-11-24T08:10:18;100844.56;;;-1.98;70.14
74893;BME280;63446;56.272;43.922;2022-11-24T08:12:44;100850.56;;;-1.97;70.15
74893;BME280;63446;56.272;43.922;2022-11-24T08:15:09;100857.00;;;-1.93;70.33
74893;BME280;63446;56.272;43.922;2022-11-24T08:17:35;100850.84;;;-1.92;70.24
74893;BME280;63446;56.272;43.922;2022-11-24T08:20:01;100857.44;;;-1.89;70.22
74893;BME280;63446;56.272;43.922;2022-11-24T08:22:29;100855.50;;;-1.87;70.37
74893;BME280;63446;56.272;43.922;2022-11-24T08:24:55;100847.41;;;-1.84;70.55
74893;BME280;63446;56.272;43.922;2022-11-24T08:27:21;100854.78;;;-1.81;70.55
74893;BME280;63446;56.272;43.922;2022-11-24T08:29:46;100837.75;;;-1.76;70.50
74893;BME280;63446;56.272;43.922;2022-11-24T08:32:13;100846.59;;;-1.70;70.60
74893;BME280;63446;56.272;43.922;2022-11-24T08:34:39;100845.09;;;-1.64;70.49
74893;BME280;63446;56.272;43.922;2022-11-24T08:37:05;100855.13;;;-1.61;70.27
74893;BME280;63446;56.272;43.922;2022-11-24T08:39:32;100862.38;;;-1.57;70.46
74893;BME280;63446;56.272;43.922;2022-11-24T08:41:58;100857.63;;;-1.53;70.48
74893;BME280;63446;56.272;43.922;2022-11-24T08:44:25;100863.28;;;-1.50;70.40
74893;BME280;63446;56.272;43.922;2022-11-24T08:46:53;100859.69;;;-1.49;70.28
74893;BME280;63446;56.272;43.922;2022-11-24T08:49:19;100860.31;;;-1.47;70.14
74893;BME280;63446;56.272;43.922;2022-11-24T08:51:46;100857.56;;;-1.45;70.26
74893;BME280;63446;56.272;43.922;2022-11-24T08:54:13;100860.75;;;-1.43;70.20
74893;BME280;63446;56.272;43.922;2022-11-24T08:56:40;100867.38;;;-1.40;70.28
74893;BME280;63446;56.272;43.922;2022-11-24T08:59:06;100871.75;;;-1.41;70.34
74893;BME280;63446;56.272;43.922;2022-11-24T09:01:33;100881.78;;;-1.38;70.48
74893;BME280;63446;56.272;43.922;2022-11-24T09:03:58;100876.41;;;-1.36;70.46
74893;BME280;63446;56.272;43.922;2022-11-24T09:06:26;100887.44;;;-1.34;70.59
74893;BME280;63446;56.272;43.922;2022-11-24T09:08:55;100889.03;;;-1.33;70.50
74893;BME280;63446;56.272;43.922;2022-11-24T09:11:23;100876.88;;;-1.33;70.49
74893;BME280;63446;56.272;43.922;2022-11-24T09:13:49;100889.66;;;-1.31;70.38
74893;BME280;63446;56.272;43.922;2022-11-24T09:16:20;100881.88;;;-1.31;70.33
74893;BME280;63446;56.272;43.922;2022-11-24T09:18:46;100875.44;;;-1.35;70.09
74893;BME280;63446;56.272;43.922;2022-11-24T09:21:18;100875.88;;;-1.32;70.06
74893;BME280;63446;56.272;43.922;2022-11-24T09:23:46;100878.31;;;-1.30;70.09
74893;BME280;63446;56.272;43.922;2022-11-24T09:26:20;100884.75;;;-1.26;70.21
74893;BME280;63446;56.272;43.922;2022-11-24T09:28:47;100891.53;;;-1.25;70.26
74893;BME280;63446;56.272;43.922;2022-11-24T09:31:15;100889.56;;;-1.23;70.07
74893;BME280;63446;56.272;43.922;2022-11-24T09:33:42;100891.19;;;-1.22;69.76
74893;BME280;63446;56.272;43.922;2022-11-24T09:36:08;100889.56;;;-1.23;69.88
74893;BME280;63446;56.272;43.922;2022-11-24T09:38:34;100879.81;;;-1.21;69.79
74893;BME280;63446;56.272;43.922;2022-11-24T09:47:53;100896.38;;;-1.22;69.42
74893;BME280;63446;56.272;43.922;2022-11-24T09:50:22;100895.94;;;-1.26;69.35
74893;BME280;63446;56.272;43.922;2022-11-24T09:53:07;100897.88;;;-1.28;69.21
74893;BME280;63446;56.272;43.922;2022-11-24T09:55:54;100903.59;;;-1.32;69.10
74893;BME280;63446;56.272;43.922;2022-11-24T10:01:04;100900.09;;;-1.39;68.76
74893;BME280;63446;56.272;43.922;2022-11-24T10:03:37;100897.06;;;-1.43;69.09
74893;BME280;63446;56.272;43.922;2022-11-24T10:06:15;100905.19;;;-1.46;69.08
74893;BME280;63446;56.272;43.922;2022-11-24T10:09:05;100906.34;;;-1.49;69.02
74893;BME280;63446;56.272;43.922;2022-11-24T10:16:56;100911.28;;;-1.54;69.04
74893;BME280;63446;56.272;43.922;2022-11-24T10:22:20;100916.16;;;-1.59;69.22
74893;BME280;63446;56.272;43.922;2022-11-24T10:24:52;100923.94;;;-1.59;69.32
74893;BME280;63446;56.272;43.922;2022-11-24T10:27:25;100921.69;;;-1.62;69.31
74893;BME280;63446;56.272;43.922;2022-11-24T10:29:53;100926.06;;;-1.62;69.30
74893;BME280;63446;56.272;43.922;2022-11-24T10:32:47;100934.03;;;-1.64;69.48
74893;BME280;63446;56.272;43.922;2022-11-24T10:35:18;100933.22;;;-1.64;69.52
74893;BME280;63446;56.272;43.922;2022-11-24T10:40:53;100947.97;;;-1.65;69.74
74893;BME280;63446;56.272;43.922;2022-11-24T10:43:22;100941.78;;;-1.64;69.83
74893;BME280;63446;56.272;43.922;2022-11-24T10:45:48;100952.78;;;-1.62;69.94
74893;BME280;63446;56.272;43.922;2022-11-24T10:48:21;100941.44;;;-1.61;69.91
74893;BME280;63446;56.272;43.922;2022-11-24T10:50:52;100947.25;;;-1.59;69.90
74893;BME280;63446;56.272;43.922;2022-11-24T10:53:33;100947.25;;;-1.59;70.00
74893;BME280;63446;56.272;43.922;2022-11-24T10:56:03;100948.25;;;-1.60;70.05
74893;BME280;63446;56.272;43.922;2022-11-24T10:58:34;100947.25;;;-1.59;69.87
74893;BME280;63446;56.272;43.922;2022-11-24T11:01:19;100953.44;;;-1.60;69.84
74893;BME280;63446;56.272;43.922;2022-11-24T11:03:51;100950.03;;;-1.60;70.04
74893;BME280;63446;56.272;43.922;2022-11-24T11:06:29;100950.84;;;-1.60;70.11
74893;BME280;63446;56.272;43.922;2022-11-24T11:11:35;100954.41;;;-1.61;70.02
74893;BME280;63446;56.272;43.922;2022-11-24T11:14:05;100959.59;;;-1.61;70.00
74893;BME280;63446;56.272;43.922;2022-11-24T11:16:39;100963.78;;;-1.60;70.25
74893;BME280;63446;56.272;43.922;2022-11-24T11:22:04;100961.00;;;-1.58;70.43
74893;BME280;63446;56.272;43.922;2022-11-24T11:24:31;100959.06;;;-1.56;70.30
74893;BME280;63446;56.272;43.922;2022-11-24T11:27:03;100961.66;;;-1.56;69.96
74893;BME280;63446;56.272;43.922;2022-11-24T11:29:30;100962.19;;;-1.61;69.80
74893;BME280;63446;56.272;43.922;2022-11-24T11:32:02;100963.78;;;-1.60;69.56
74893;BME280;63446;56.272;43.922;2022-11-24T11:34:34;100963.50;;;-1.65;69.49
74893;BME280;63446;56.272;43.922;2022-11-24T11:37:02;100970.03;;;-1.69;69.68
74893;BME280;63446;56.272;43.922;2022-11-24T11:39:33;100976.97;;;-1.69;69.80
74893;BME280;63446;56.272;43.922;2022-11-24T11:42:09;100974.75;;;-1.73;69.78
74893;BME280;63446;56.272;43.922;2022-11-24T11:44:48;100984.47;;;-1.75;69.63
74893;BME280;63446;56.272;43.922;2022-11-24T11:47:24;100980.41;;;-1.77;69.44
74893;BME280;63446;56.272;43.922;2022-11-24T11:49:52;100979.00;;;-1.80;69.46
74893;BME280;63446;56.272;43.922;2022-11-24T11:52:37;100975.16;;;-1.84;69.49
74893;BME280;63446;56.272;43.922;2022-11-24T11:55:44;100975.47;;;-1.87;69.63
74893;BME280;63446;56.272;43.922;2022-11-24T12:00:58;100978.88;;;-1.86;69.59
74893;BME280;63446;56.272;43.922;2022-11-24T12:06:42;100992.16;;;-1.89;69.45
74893;BME280;63446;56.272;43.922;2022-11-24T12:17:41;100998.72;;;-2.02;69.32
74893;BME280;63446;56.272;43.922;2022-11-24T12:22:57;101000.84;;;-2.05;69.42
74893;BME280;63446;56.272;43.922;2022-11-24T12:25:38;100999.38;;;-2.08;69.46
74893;BME280;63446;56.272;43.922;2022-11-24T12:28:29;101004.13;;;-2.11;69.43
74893;BME280;63446;56.272;43.922;2022-11-24T12:31:07;100998.47;;;-2.15;69.13
74893;BME280;63446;56.272;43.922;2022-11-24T12:33:54;100995.56;;;-2.20;69.31
74893;BME280;63446;56.272;43.922;2022-11-24T12:42:12;101010.16;;;-2.27;69.48
74893;BME280;63446;56.272;43.922;2022-11-24T12:50:20;101008.06;;;-2.32;69.37
74893;BME280;63446;56.272;43.922;2022-11-24T12:52:51;101008.41;;;-2.35;69.40
74893;BME280;63446;56.272;43.922;2022-11-24T12:55:20;101015.53;;;-2.37;69.36
74893;BME280;63446;56.272;43.922;2022-11-24T13:00:21;101019.75;;;-2.36;69.68
74893;BME280;63446;56.272;43.922;2022-11-24T13:03:31;101025.91;;;-2.37;69.68
74893;BME280;63446;56.272;43.922;2022-11-24T13:06:14;101020.53;;;-2.35;69.80
74893;BME280;63446;56.272;43.922;2022-11-24T13:08:42;101026.72;;;-2.36;69.90
74893;BME280;63446;56.272;43.922;2022-11-24T13:11:36;101027.50;;;-2.36;69.62
74893;BME280;63446;56.272;43.922;2022-11-24T13:14:20;101023.47;;;-2.38;69.53
74893;BME280;63446;56.272;43.922;2022-11-24T13:16:49;101030.59;;;-2.40;69.58
74893;BME280;63446;56.272;43.922;2022-11-24T13:19:32;101036.91;;;-2.43;69.66
74893;BME280;63446;56.272;43.922;2022-11-24T13:24:34;101035.13;;;-2.42;69.61
74893;BME280;63446;56.272;43.922;2022-11-24T13:29:49;101040.81;;;-2.47;69.69
74893;BME280;63446;56.272;43.922;2022-11-24T13:39:52;101040.22;;;-2.57;69.52
74893;BME280;63446;56.272;43.922;2022-11-24T13:42:19;101042.94;;;-2.59;69.42
74893;BME280;63446;56.272;43.922;2022-11-24T13:44:50;101047.81;;;-2.64;69.51
74893;BME280;63446;56.272;43.922;2022-11-24T13:47:30;101051.53;;;-2.66;69.42
74893;BME280;63446;56.272;43.922;2022-11-24T13:49:58;101056.72;;;-2.66;69.60
74893;BME280;63446;56.272;43.922;2022-11-24T13:57:52;101066.56;;;-2.62;69.86
74893;BME280;63446;56.272;43.922;2022-11-24T14:02:45;101068.69;;;-2.57;69.96
74893;BME280;63446;56.272;43.922;2022-11-24T14:05:16;101070.91;;;-2.54;69.92
74893;BME280;63446;56.272;43.922;2022-11-24T14:07:44;101067.38;;;-2.53;69.92
74893;BME280;63446;56.272;43.922;2022-11-24T14:10:21;101062.81;;;-2.51;69.98
74893;BME280;63446;56.272;43.922;2022-11-24T14:18:28;101070.09;;;-2.47;69.83
74893;BME280;63446;56.272;43.922;2022-11-24T14:21:14;101085.47;;;-2.45;69.85
74893;BME280;63446;56.272;43.922;2022-11-24T14:23:45;101083.03;;;-2.47;69.72
74893;BME280;63446;56.272;43.922;2022-11-24T14:26:27;101081.25;;;-2.46;69.89
74893;BME280;63446;56.272;43.922;2022-11-24T14:31:36;101095.50;;;-2.42;69.88
74893;BME280;63446;56.272;43.922;2022-11-24T14:34:17;101089.47;;;-2.42;69.77
74893;BME280;63446;56.272;43.922;2022-11-24T14:36:46;101093.84;;;-2.43;69.82
74893;BME280;63446;56.272;43.922;2022-11-24T14:39:14;101095.50;;;-2.42;69.95
74893;BME280;63446;56.272;43.922;2022-11-24T14:41:42;101093.84;;;-2.43;69.81
74893;BME280;63446;56.272;43.922;2022-11-24T14:44:21;101105.84;;;-2.42;70.09
74893;BME280;63446;56.272;43.922;2022-11-24T14:47:06;101105.66;;;-2.40;69.99
74893;BME280;63446;56.272;43.922;2022-11-24T14:49:32;101104.88;;;-2.41;69.96
74893;BME280;63446;56.272;43.922;2022-11-24T14:52:03;101103.88;;;-2.40;70.17
74893;BME280;63446;56.272;43.922;2022-11-24T14:54:36;101097.72;;;-2.39;70.01
74893;BME280;63446;56.272;43.922;2022-11-24T15:00:15;101105.16;;;-2.36;70.05
74893;BME280;63446;56.272;43.922;2022-11-24T15:02:47;101106.78;;;-2.35;70.13
74893;BME280;63446;56.272;43.922;2022-11-24T15:05:15;101100.78;;;-2.35;70.17
74893;BME280;63446;56.272;43.922;2022-11-24T15:07:48;101115.38;;;-2.34;70.06
74893;BME280;63446;56.272;43.922;2022-11-24T15:10:20;101111.00;;;-2.34;70.10
74893;BME280;63446;56.272;43.922;2022-11-24T15:12:57;101110.19;;;-2.34;70.05